HE27 weather

Uthman Air Base
Matruh Governorate, Egypt

Public forecast

Using degrees Celsius for public forecast. Weather courtesy of forecast.io.

Closest aviation weather report (METAR) to Uthman Air Base

Closest report is Mersa Matruh Airport, 135.8 nm (251.5 km) NE. Retrieved 2020/06/01 05:00 UTC (1 hour ago):

HEMM 010500Z 18020KT 6000 SCT020 24/09 Q1009 NOSIG

Closest aviation forecast (TAF) to Uthman Air Base

Closest forecast is Mersa Matruh Airport, 135.8 nm (251.5 km) NE. Retrieved 2020-06-01 00:55 UTC (5 hours ago):

TAF HEMM 312300Z 0100/0206 15012KT CAVOK BECMG 0104/0106 22008G18KT PROB40 TEMPO 0109/0112 4000 SA NSC